createdAt,value
2022-12-27T00:01:46.380Z,8.15
2022-12-27T00:04:50.545Z,8.14
2022-12-27T00:07:53.209Z,8.13
2022-12-27T00:10:56.241Z,8.14
2022-12-27T00:14:03.190Z,8.14
2022-12-27T00:17:06.997Z,8.17
2022-12-27T00:20:12.042Z,8.09
2022-12-27T00:23:15.167Z,8.07
2022-12-27T00:26:23.485Z,8.14
2022-12-27T00:29:27.149Z,8.20
2022-12-27T00:32:29.804Z,8.24
2022-12-27T00:35:32.820Z,8.17
2022-12-27T00:38:36.107Z,8.19
2022-12-27T00:41:39.097Z,8.20
2022-12-27T00:44:43.538Z,8.17
2022-12-27T00:47:48.653Z,8.21
2022-12-27T00:50:51.636Z,8.24
2022-12-27T00:53:56.136Z,8.27
2022-12-27T00:56:58.768Z,8.27
2022-12-27T01:00:07.924Z,8.24
2022-12-27T01:03:12.627Z,8.33
2022-12-27T01:06:18.417Z,8.25
2022-12-27T01:09:21.066Z,8.29
2022-12-27T01:12:24.675Z,8.28
2022-12-27T01:15:27.481Z,8.25
2022-12-27T01:18:30.744Z,8.20
2022-12-27T01:21:33.487Z,8.28
2022-12-27T01:24:36.828Z,8.28
2022-12-27T01:27:39.652Z,8.27
2022-12-27T01:30:42.742Z,8.31
2022-12-27T01:33:45.650Z,8.36
2022-12-27T01:36:48.789Z,8.24
2022-12-27T01:39:51.398Z,8.30
2022-12-27T01:42:55.900Z,8.34
2022-12-27T01:45:59.028Z,8.32
2022-12-27T01:49:05.113Z,8.29
2022-12-27T01:52:10.362Z,8.36
2022-12-27T01:55:47.052Z,8.35
2022-12-27T01:58:59.784Z,8.24
2022-12-27T02:02:04.355Z,8.24
2022-12-27T02:05:07.663Z,8.19
2022-12-27T02:08:33.133Z,8.21
2022-12-27T02:11:52.335Z,8.16
2022-12-27T02:14:56.476Z,8.05
2022-12-27T02:17:59.157Z,8.12
2022-12-27T02:21:11.716Z,8.12
2022-12-27T02:24:14.320Z,8.13
2022-12-27T02:27:36.079Z,8.08
2022-12-27T02:30:38.914Z,8.04
2022-12-27T02:33:45.974Z,8.11
2022-12-27T02:36:49.994Z,8.03
2022-12-27T02:39:54.471Z,8.11
2022-12-27T02:43:15.845Z,8.04
2022-12-27T02:46:46.037Z,8.07
2022-12-27T02:50:07.216Z,8.02
2022-12-27T02:53:40.918Z,7.41
2022-12-27T02:57:10.016Z,7.04
2022-12-27T03:00:40.669Z,6.76
2022-12-27T03:04:12.107Z,6.32
2022-12-27T03:07:39.156Z,6.05
2022-12-27T03:11:10.411Z,5.82
2022-12-27T03:14:40.181Z,5.68
2022-12-27T03:17:52.571Z,5.53
2022-12-27T03:21:16.821Z,5.54
2022-12-27T03:24:41.742Z,5.49
2022-12-27T03:28:06.830Z,5.49
2022-12-27T03:31:42.097Z,5.51
2022-12-27T03:34:51.550Z,5.38
2022-12-27T03:38:04.330Z,5.34
2022-12-27T03:41:31.078Z,5.39
2022-12-27T03:44:34.938Z,5.36
2022-12-27T03:47:43.687Z,5.26
2022-12-27T03:51:05.366Z,5.31
2022-12-27T03:54:26.603Z,5.19
2022-12-27T03:57:30.210Z,5.12
2022-12-27T04:00:33.638Z,4.95
2022-12-27T04:03:36.278Z,5.05
2022-12-27T04:06:39.598Z,5.02
2022-12-27T04:10:01.853Z,5.03
2022-12-27T04:13:23.713Z,4.91
2022-12-27T04:16:44.878Z,4.88
2022-12-27T04:20:06.369Z,4.86
2022-12-27T04:23:27.859Z,4.77
2022-12-27T04:26:49.164Z,4.78
2022-12-27T04:30:10.350Z,4.81
2022-12-27T04:33:31.970Z,4.74
2022-12-27T04:36:34.686Z,4.71
2022-12-27T04:39:37.708Z,4.65
2022-12-27T04:42:58.789Z,4.67
2022-12-27T04:46:20.440Z,4.65
2022-12-27T04:49:43.944Z,4.67
2022-12-27T04:53:06.740Z,4.55
2022-12-27T04:56:09.472Z,4.50
2022-12-27T04:59:31.007Z,4.43
2022-12-27T05:02:34.208Z,4.36
2022-12-27T05:05:38.652Z,4.26
2022-12-27T05:09:00.154Z,4.12
2022-12-27T05:12:21.915Z,4.12
2022-12-27T05:15:24.436Z,4.06
2022-12-27T05:18:28.109Z,3.98
2022-12-27T05:21:31.018Z,3.86
2022-12-27T05:24:52.478Z,3.85
2022-12-27T05:27:55.976Z,3.78
2022-12-27T05:31:06.887Z,3.81
2022-12-27T05:34:09.610Z,3.69
2022-12-27T05:37:13.933Z,3.64
2022-12-27T05:40:17.004Z,3.58
2022-12-27T05:43:20.143Z,3.55
2022-12-27T05:46:23.171Z,3.48
2022-12-27T05:49:26.529Z,3.48
2022-12-27T05:52:33.081Z,3.53
2022-12-27T05:55:40.145Z,3.52
2022-12-27T05:58:43.527Z,3.43
2022-12-27T06:01:47.357Z,3.42
2022-12-27T06:04:50.090Z,3.51
2022-12-27T06:07:53.455Z,3.32
2022-12-27T06:11:07.199Z,3.38
2022-12-27T06:14:10.435Z,3.28
2022-12-27T06:17:13.168Z,3.19
2022-12-27T06:20:16.312Z,3.19
2022-12-27T06:23:19.017Z,3.19
2022-12-27T06:26:25.396Z,3.18
2022-12-27T06:29:28.103Z,3.27
2022-12-27T06:32:32.444Z,3.33
2022-12-27T06:35:35.063Z,3.35
2022-12-27T06:38:38.875Z,3.33
2022-12-27T06:41:41.576Z,3.26
2022-12-27T06:44:44.949Z,3.25
2022-12-27T06:47:47.611Z,3.16
2022-12-27T06:50:51.101Z,3.17
2022-12-27T06:53:53.782Z,3.04
2022-12-27T06:56:57.420Z,3.04
2022-12-27T07:00:00.167Z,3.10
2022-12-27T07:03:04.396Z,3.00
2022-12-27T07:06:08.670Z,2.97
2022-12-27T07:09:12.210Z,3.00
2022-12-27T07:12:14.933Z,2.75
2022-12-27T07:15:18.200Z,2.84
2022-12-27T07:18:20.768Z,2.79
2022-12-27T07:21:25.956Z,2.77
2022-12-27T07:24:28.504Z,2.77
2022-12-27T07:27:34.949Z,2.86
2022-12-27T07:30:40.357Z,2.89
2022-12-27T07:33:44.297Z,2.87
2022-12-27T07:36:47.272Z,2.93
2022-12-27T07:39:50.320Z,2.99
2022-12-27T07:42:53.028Z,2.96
2022-12-27T07:45:56.140Z,3.09
2022-12-27T07:48:59.363Z,3.11
2022-12-27T07:52:03.055Z,3.18
2022-12-27T07:55:06.202Z,3.17
2022-12-27T07:58:09.599Z,3.27
2022-12-27T08:01:13.563Z,3.30
2022-12-27T08:04:17.264Z,3.30
2022-12-27T08:07:20.540Z,3.37
2022-12-27T08:10:23.970Z,3.35
2022-12-27T08:13:27.285Z,3.35
2022-12-27T08:16:31.155Z,3.40
2022-12-27T08:19:34.643Z,3.45
2022-12-27T08:22:38.240Z,3.48
2022-12-27T08:25:44.841Z,3.45
2022-12-27T08:28:52.758Z,3.47
2022-12-27T08:31:55.399Z,3.54
2022-12-27T08:35:17.922Z,3.62
2022-12-27T08:38:21.632Z,3.68
2022-12-27T08:41:25.028Z,3.71
2022-12-27T08:44:27.785Z,3.69
2022-12-27T08:47:31.061Z,3.72
2022-12-27T08:50:33.892Z,3.80
2022-12-27T08:53:37.077Z,3.85
2022-12-27T08:56:39.850Z,3.92
2022-12-27T08:59:43.458Z,3.89
2022-12-27T09:02:47.302Z,3.85
2022-12-27T09:05:50.760Z,3.94
2022-12-27T09:08:54.983Z,4.00
2022-12-27T09:11:58.090Z,4.07
2022-12-27T09:15:00.834Z,4.07
2022-12-27T09:18:05.014Z,4.08
2022-12-27T09:21:11.753Z,4.10
2022-12-27T09:24:15.401Z,4.10
2022-12-27T09:27:19.532Z,4.17
2022-12-27T09:30:23.207Z,4.10
2022-12-27T09:33:26.215Z,4.25
2022-12-27T09:36:30.395Z,4.31
2022-12-27T09:39:33.250Z,4.28
2022-12-27T09:43:16.228Z,4.29
2022-12-27T09:46:26.975Z,4.31
2022-12-27T09:49:38.531Z,4.34
2022-12-27T09:52:50.319Z,4.29
2022-12-27T09:55:56.020Z,4.33
2022-12-27T09:59:06.319Z,4.33
2022-12-27T10:02:27.385Z,4.39
2022-12-27T10:05:34.601Z,4.42
2022-12-27T10:09:21.294Z,4.44
2022-12-27T10:12:42.700Z,4.46
2022-12-27T10:15:54.657Z,4.52
2022-12-27T10:19:42.520Z,4.56
2022-12-27T10:23:06.877Z,4.54
2022-12-27T10:26:18.231Z,4.60
2022-12-27T10:29:23.683Z,4.58
2022-12-27T10:32:26.936Z,4.63
2022-12-27T10:35:31.030Z,4.63
2022-12-27T10:38:35.467Z,4.53
2022-12-27T10:41:57.378Z,4.52
2022-12-27T10:45:36.575Z,4.54
2022-12-27T10:49:11.305Z,4.63
2022-12-27T10:52:19.395Z,4.73
2022-12-27T10:55:33.647Z,4.74
2022-12-27T10:58:40.935Z,4.80
2022-12-27T11:01:50.281Z,5.00
2022-12-27T11:04:58.785Z,5.06
2022-12-27T11:08:19.793Z,5.09
2022-12-27T11:11:25.313Z,4.93
2022-12-27T11:14:28.995Z,5.05
2022-12-27T11:18:07.132Z,5.10
2022-12-27T11:21:21.214Z,5.05
2022-12-27T11:24:28.622Z,5.02
2022-12-27T11:27:33.248Z,4.98
2022-12-27T11:30:39.920Z,4.88
2022-12-27T11:33:47.923Z,4.85
2022-12-27T11:36:53.980Z,4.90
2022-12-27T11:40:27.908Z,4.89
2022-12-27T11:43:38.232Z,4.91
2022-12-27T11:46:46.278Z,4.97
2022-12-27T11:49:53.945Z,4.94
2022-12-27T11:53:12.674Z,4.86
2022-12-27T11:56:20.085Z,4.88
2022-12-27T11:59:32.070Z,4.93
2022-12-27T12:02:50.311Z,4.87
2022-12-27T12:06:31.389Z,4.81
2022-12-27T12:09:42.939Z,4.85
2022-12-27T12:12:56.956Z,4.81
2022-12-27T12:16:53.337Z,4.84
2022-12-27T12:20:11.136Z,4.76
2022-12-27T12:23:33.481Z,4.78
2022-12-27T12:27:11.396Z,4.66
2022-12-27T12:30:46.139Z,4.73
2022-12-27T12:33:56.486Z,4.69
2022-12-27T12:37:14.167Z,4.57
2022-12-27T12:40:55.016Z,4.59
2022-12-27T12:44:38.095Z,4.48
2022-12-27T12:48:21.032Z,4.41
2022-12-27T12:51:52.905Z,4.42
2022-12-27T12:55:03.603Z,4.44
2022-12-27T12:58:18.461Z,4.42
2022-12-27T13:01:50.642Z,4.42
2022-12-27T13:05:24.770Z,4.25
2022-12-27T13:08:47.473Z,4.24
2022-12-27T13:12:05.668Z,4.23
2022-12-27T13:15:32.065Z,4.18
2022-12-27T13:18:39.488Z,4.23
2022-12-27T13:21:48.680Z,4.10
2022-12-27T13:25:32.153Z,4.11
2022-12-27T13:28:45.475Z,4.06
2022-12-27T13:32:40.117Z,4.00
2022-12-27T13:36:20.546Z,3.95
2022-12-27T13:39:38.367Z,3.96
2022-12-27T13:42:48.725Z,3.91
2022-12-27T13:46:09.513Z,4.00
2022-12-27T13:49:34.681Z,3.98
2022-12-27T13:52:59.803Z,3.96
2022-12-27T13:56:52.971Z,3.93
2022-12-27T14:00:17.609Z,3.94
2022-12-27T14:03:49.079Z,3.89
2022-12-27T14:07:08.106Z,3.94
2022-12-27T14:10:28.398Z,3.84
2022-12-27T14:13:36.812Z,3.96
2022-12-27T14:17:13.499Z,3.89
2022-12-27T14:20:44.865Z,3.92
2022-12-27T14:24:19.525Z,3.90
2022-12-27T14:28:04.133Z,3.94
2022-12-27T14:31:22.970Z,3.86
2022-12-27T14:34:59.302Z,3.91
2022-12-27T14:38:24.387Z,3.91
2022-12-27T14:41:48.991Z,3.91
2022-12-27T14:45:10.886Z,3.94
2022-12-27T14:48:33.576Z,3.92
2022-12-27T14:52:06.096Z,3.89
2022-12-27T14:55:24.274Z,3.91
2022-12-27T14:59:25.865Z,3.94
2022-12-27T15:02:43.349Z,3.97
2022-12-27T15:06:08.562Z,3.98
2022-12-27T15:09:26.291Z,3.93
2022-12-27T15:12:51.777Z,3.91
2022-12-27T15:16:15.588Z,3.90
2022-12-27T15:19:43.499Z,3.93
2022-12-27T15:23:26.203Z,3.85
2022-12-27T15:26:50.713Z,3.88
2022-12-27T15:30:02.475Z,3.89
2022-12-27T15:33:32.617Z,3.85
2022-12-27T15:36:44.503Z,3.75
2022-12-27T15:39:49.159Z,3.80
2022-12-27T15:43:13.125Z,3.83
2022-12-27T15:46:41.009Z,3.82
2022-12-27T15:50:20.920Z,3.79
2022-12-27T15:53:39.158Z,3.78
2022-12-27T15:57:03.386Z,3.71
2022-12-27T16:00:14.931Z,3.76
2022-12-27T16:03:36.755Z,3.79
2022-12-27T16:06:50.628Z,3.76
2022-12-27T16:09:54.000Z,3.71
2022-12-27T16:13:09.467Z,3.73
2022-12-27T16:16:39.164Z,3.70
2022-12-27T16:19:48.337Z,3.72
2022-12-27T16:22:52.592Z,3.75
2022-12-27T16:26:17.569Z,3.71
2022-12-27T16:29:23.617Z,3.74
2022-12-27T16:32:28.773Z,3.71
2022-12-27T16:35:33.116Z,3.73
2022-12-27T16:38:46.039Z,3.76
2022-12-27T16:41:57.497Z,3.79
2022-12-27T16:45:05.958Z,3.84
2022-12-27T16:48:42.226Z,3.78
2022-12-27T16:52:07.319Z,3.83
2022-12-27T16:55:15.992Z,3.83
2022-12-27T16:58:19.055Z,3.85
2022-12-27T17:01:50.840Z,3.85
2022-12-27T17:04:59.509Z,3.83
2022-12-27T17:08:02.265Z,3.91
2022-12-27T17:11:28.523Z,3.94
2022-12-27T17:14:38.725Z,3.92
2022-12-27T17:17:44.661Z,3.91
2022-12-27T17:21:02.514Z,3.89
2022-12-27T17:24:07.629Z,3.90
2022-12-27T17:27:14.188Z,3.94
2022-12-27T17:30:26.919Z,3.92
2022-12-27T17:33:47.819Z,3.96
2022-12-27T17:37:05.456Z,3.90
2022-12-27T17:40:20.199Z,3.96
2022-12-27T17:44:22.599Z,3.95
2022-12-27T17:47:43.892Z,3.87
2022-12-27T17:50:47.364Z,3.85
2022-12-27T17:54:10.658Z,3.91
2022-12-27T17:57:34.038Z,3.89
2022-12-27T18:00:44.216Z,3.94
2022-12-27T18:03:48.612Z,3.92
2022-12-27T18:06:58.598Z,3.91
2022-12-27T18:10:27.285Z,3.92
2022-12-27T18:13:36.813Z,3.95
2022-12-27T18:16:41.652Z,3.96
2022-12-27T18:19:44.830Z,3.94
2022-12-27T18:22:48.609Z,3.99
2022-12-27T18:25:55.659Z,3.98
2022-12-27T18:29:01.578Z,3.97
2022-12-27T18:32:09.432Z,3.94
2022-12-27T18:35:24.127Z,3.99
2022-12-27T18:38:33.117Z,3.92
2022-12-27T18:41:47.890Z,3.99
2022-12-27T18:45:34.150Z,3.93
2022-12-27T18:48:38.324Z,3.90
2022-12-27T18:51:44.837Z,3.99
2022-12-27T18:54:49.186Z,3.86
2022-12-27T18:58:06.715Z,3.91
2022-12-27T19:01:26.592Z,3.87
2022-12-27T19:04:32.510Z,3.83
2022-12-27T19:07:36.043Z,3.80
2022-12-27T19:10:47.901Z,3.79
2022-12-27T19:13:55.123Z,3.73
2022-12-27T19:16:59.523Z,3.73
2022-12-27T19:20:06.486Z,3.70
2022-12-27T19:23:50.141Z,3.68
2022-12-27T19:26:55.424Z,3.69
2022-12-27T19:29:58.956Z,3.58
2022-12-27T19:33:07.109Z,3.59
2022-12-27T19:36:10.765Z,3.63
2022-12-27T19:39:26.938Z,3.67
2022-12-27T19:42:32.449Z,3.72
2022-12-27T19:45:37.179Z,3.68
2022-12-27T19:48:41.357Z,3.64
2022-12-27T19:51:45.759Z,3.68
2022-12-27T19:54:50.949Z,3.71
2022-12-27T19:57:57.056Z,3.77
2022-12-27T20:01:00.560Z,3.69
2022-12-27T20:04:05.218Z,3.70
2022-12-27T20:07:16.954Z,3.72
2022-12-27T20:10:20.464Z,3.70
2022-12-27T20:13:24.530Z,3.74
2022-12-27T20:16:28.347Z,3.70
2022-12-27T20:19:31.410Z,3.75
2022-12-27T20:22:36.468Z,3.73
2022-12-27T20:25:43.936Z,3.81
2022-12-27T20:28:50.931Z,3.78
2022-12-27T20:31:53.775Z,3.76
2022-12-27T20:34:57.990Z,3.73
2022-12-27T20:38:01.050Z,3.70
2022-12-27T20:41:10.279Z,3.73
2022-12-27T20:44:15.215Z,3.70
2022-12-27T20:47:18.942Z,3.71
2022-12-27T20:50:21.776Z,3.74
2022-12-27T20:53:28.325Z,3.74
2022-12-27T20:56:31.587Z,3.71
2022-12-27T20:59:34.958Z,3.77
2022-12-27T21:02:40.467Z,3.78
2022-12-27T21:05:45.568Z,3.77
2022-12-27T21:08:55.924Z,3.78
2022-12-27T21:12:02.376Z,3.77
2022-12-27T21:15:08.738Z,3.76
2022-12-27T21:18:11.952Z,3.75
2022-12-27T21:21:19.411Z,3.77
2022-12-27T21:24:23.694Z,3.69
2022-12-27T21:27:26.582Z,3.69
2022-12-27T21:30:30.715Z,3.70
2022-12-27T21:33:35.547Z,3.74
2022-12-27T21:36:39.788Z,3.58
2022-12-27T21:39:42.522Z,3.61
2022-12-27T21:42:46.116Z,3.65
2022-12-27T21:45:48.876Z,3.71
2022-12-27T21:49:00.157Z,3.74
2022-12-27T21:52:04.056Z,3.73
2022-12-27T21:55:07.517Z,3.72
2022-12-27T21:58:10.566Z,3.70
2022-12-27T22:01:19.420Z,3.67
2022-12-27T22:04:22.235Z,3.60
2022-12-27T22:07:25.329Z,3.68
2022-12-27T22:10:27.967Z,3.66
2022-12-27T22:13:31.386Z,3.68
2022-12-27T22:16:36.770Z,3.68
2022-12-27T22:19:40.393Z,3.68
2022-12-27T22:22:43.277Z,3.57
2022-12-27T22:25:46.608Z,3.65
2022-12-27T22:28:49.987Z,3.70
2022-12-27T22:31:54.015Z,3.66
2022-12-27T22:34:56.739Z,3.67
2022-12-27T22:38:00.638Z,3.67
2022-12-27T22:41:26.673Z,3.65
2022-12-27T22:44:30.246Z,3.60
2022-12-27T22:47:33.584Z,3.56
2022-12-27T22:50:38.305Z,3.55
2022-12-27T22:53:41.280Z,3.59
2022-12-27T22:56:44.944Z,3.56
2022-12-27T22:59:47.564Z,3.53
2022-12-27T23:02:50.713Z,3.49
2022-12-27T23:06:00.664Z,3.55
2022-12-27T23:09:04.881Z,3.57
2022-12-27T23:12:07.510Z,3.60
2022-12-27T23:15:11.167Z,3.59
2022-12-27T23:18:13.894Z,3.58
2022-12-27T23:21:21.224Z,3.63
2022-12-27T23:24:26.690Z,3.59
2022-12-27T23:27:29.869Z,3.68
2022-12-27T23:30:32.681Z,3.64
2022-12-27T23:33:36.277Z,3.68
2022-12-27T23:36:39.170Z,3.61
2022-12-27T23:39:42.580Z,3.63
2022-12-27T23:42:45.465Z,3.70
2022-12-27T23:45:49.139Z,3.66
2022-12-27T23:48:52.349Z,3.65
2022-12-27T23:51:55.873Z,3.68
2022-12-27T23:54:58.885Z,3.72
2022-12-27T23:58:02.313Z,3.60
